Nearby METAR Reports

 

LFSI - St. Dizier/Robin, France
Distance from station: SO 26km
Mise à jour: 18/09/2020 14:30
clair
clair
 Wind from ESE
Vent: ESE 17 km/h
Température: 28°C
Heat Index: 28°C
Point de rosée: 14°C
Humidité: 42%
Baromètre: 1017 hPa
Résumé: clair
Visibility: greater than 10 km
2020/09/18 12:30 LFSI 181230Z AUTO 11009KT 050V140 CAVOK 28/14 Q1017
LFSO - Nancy/Ochey (faf, France
Distance from station: ESE 62km
Mise à jour: 18/09/2020 14:30
clair
clair
 Wind from E
Vent: E 15 km/h
Température: 25°C
Point de rosée: 13°C
Humidité: 47%
Baromètre: 1020 hPa
Résumé: clair
Visibility: greater than 10 km
2020/09/18 12:30 LFSO 181230Z AUTO 09008KT 050V120 CAVOK 25/13 Q1020
LFOK - Chalons/Vatry Fa, France
Distance from station: O 73km
Mise à jour: 18/09/2020 14:30
clair
clair
 Wind from E
Vent: E 19 km/h
Température: 26°C
Point de rosée: 12°C
Humidité: 42%
Baromètre: 1018 hPa
Résumé: clair
Visibility: greater than 10 km
2020/09/18 12:30 LFOK 181230Z AUTO 08010KT CAVOK 26/12 Q1018 NOSIG
 
LFSN - Nancy/Essey, France
Distance from station: E 77km
Mise à jour: 18/09/2020 14:30
clair
clair
 Wind from E
Vent: E 15 km/h
Température: 26°C
Point de rosée: 13°C
Humidité: 45%
Baromètre: 1019 hPa
Résumé: clair
Visibility: greater than 10 km
2020/09/18 12:30 LFSN 181230Z AUTO 09008KT 040V150 CAVOK 26/13 Q1019
LFSG - Epinal/Mirecourt, France
Distance from station: SE 81km
Mise à jour: 18/09/2020 14:30
clair
clair
 Wind from NE
Vent: NE 15 km/h
Température: 25°C
Point de rosée: 15°C
Humidité: 54%
Baromètre: 1019 hPa
Résumé: clair
Visibility: greater than 10 km
2020/09/18 12:30 LFSG 181230Z AUTO 04008KT CAVOK 25/15 Q1019
LFJL - Metz-Nancy-Lorra, France
Distance from station: ENE 82km
Mise à jour: 18/09/2020 14:30
clair
clair
 Wind from E
Vent: E 30 km/h
Température: 25°C
Point de rosée: 12°C
Humidité: 44%
Baromètre: 1020 hPa
Résumé: clair
Visibility: greater than 10 km
2020/09/18 12:30 LFJL 181230Z AUTO 09016KT CAVOK 25/12 Q1020 TEMPO 09015G25KT
 
LFQA - Reims/Prunay, France
Distance from station: ONO 89km
Mise à jour: 18/09/2020 14:30
clair
clair
 Wind from E
Vent: E 17 km/h
Température: 26°C
Point de rosée: 13°C
Humidité: 45%
Baromètre: 1018 hPa
Résumé: clair
Visibility: greater than 10 km
2020/09/18 12:30 LFQA 181230Z AUTO 09009KT 050V150 CAVOK 26/13 Q1018
LFQB - Troyes/Barberey, France
Distance from station: OSO 99km
Mise à jour: 18/09/2020 14:30
clair
clair
 Wind from E
Vent: E 11 km/h
Température: 28°C
Heat Index: 28°C
Point de rosée: 15°C
Humidité: 45%
Baromètre: 1016 hPa
Résumé: clair
Visibility: greater than 10 km
2020/09/18 12:30 LFQB 181230Z AUTO 09006KT 040V130 CAVOK 28/15 Q1016